Time;durP1;ratioP1;P1;durP2;ratioP2;P2;SDS_P1;SDS_P2;PMS_P1;PMS_P2;Temp;Humidity;BMP_temperature;BMP_pressure;BME280_temperature;BME280_humidity;BME280_pressure;Samples;Min_cycle;Max_cycle;Signal;HPM_P1;HPM_P2
2022/05/12 00:00:45;;;;;;;13.40;11.70;;;;;22.30;100153.00;;;;2070039;28;20225;-50
2022/05/12 00:01:46;;;;;;;11.60;10.23;;;;;22.30;100158.00;;;;2070414;28;20222;-50
2022/05/12 00:02:46;;;;;;;13.43;11.30;;;;;22.30;100161.00;;;;2070412;28;20214;-50
2022/05/12 00:03:46;;;;;;;11.47;10.30;;;;;22.30;100168.00;;;;2070031;28;20229;-50
2022/05/12 00:04:47;;;;;;;11.70;10.50;;;;;22.30;100158.00;;;;2070026;28;20236;-50
2022/05/12 00:05:47;;;;;;;15.77;12.80;;;;;22.20;100167.00;;;;2069227;28;20215;-50
2022/05/12 00:06:48;;;;;;;14.00;12.00;;;;;22.20;100169.00;;;;2074658;28;20268;-50
2022/05/12 00:07:48;;;;;;;12.03;10.73;;;;;22.20;100173.00;;;;2077622;28;20218;-50
2022/05/12 00:08:48;;;;;;;13.33;10.63;;;;;22.20;100169.00;;;;2069600;28;20217;-50
2022/05/12 00:09:49;;;;;;;12.27;10.97;;;;;22.20;100176.00;;;;2069292;28;20222;-50
2022/05/12 00:10:50;;;;;;;12.80;10.97;;;;;22.20;100173.00;;;;2078237;28;20820;-50
2022/05/12 00:11:50;;;;;;;11.47;10.23;;;;;22.20;100175.00;;;;2078325;28;20536;-50
2022/05/12 00:12:50;;;;;;;13.00;11.00;;;;;22.20;100188.00;;;;2078336;28;20218;-50
2022/05/12 00:13:51;;;;;;;12.20;9.87;;;;;22.30;100186.00;;;;2078405;28;20915;-50
2022/05/12 00:14:51;;;;;;;11.37;9.57;;;;;22.30;100187.00;;;;2077084;28;20300;-50
2022/05/12 00:15:53;;;;;;;11.83;10.40;;;;;22.30;100184.00;;;;2077269;28;20212;-50
2022/05/12 00:16:56;;;;;;;12.90;10.73;;;;;22.30;100188.00;;;;2078043;28;20264;-50
2022/05/12 00:17:58;;;;;;;13.23;10.65;;;;;22.20;100185.00;;;;2077263;28;20622;-50
2022/05/12 00:18:58;;;;;;;9.10;8.20;;;;;22.20;100181.00;;;;2077899;28;20217;-55
2022/05/12 00:20:00;;;;;;;12.43;10.17;;;;;22.20;100182.00;;;;2078316;28;20551;-52
2022/05/12 00:21:00;;;;;;;10.55;8.70;;;;;22.30;100172.00;;;;2078284;28;20280;-51
2022/05/12 00:22:01;;;;;;;12.93;11.33;;;;;22.30;100183.00;;;;2077862;28;20217;-51
2022/05/12 00:23:13;;;;;;;11.50;9.63;;;;;22.30;100194.00;;;;2078099;28;20279;-51
2022/05/12 00:24:16;;;;;;;12.00;10.50;;;;;22.30;100195.00;;;;2078217;28;20213;-50
2022/05/12 00:25:22;;;;;;;11.88;9.63;;;;;22.20;100200.00;;;;2078094;28;20198;-50
2022/05/12 00:26:26;;;;;;;11.40;9.88;;;;;22.30;100199.00;;;;2077322;28;20865;-50
2022/05/12 00:27:27;;;;;;;10.80;9.05;;;;;22.30;100206.00;;;;2077401;28;20263;-51
2022/05/12 00:28:27;;;;;;;12.53;10.40;;;;;22.30;100203.00;;;;2078500;28;20249;-50
2022/05/12 00:29:28;;;;;;;11.20;9.77;;;;;22.30;100206.00;;;;2078444;28;20244;-50
2022/05/12 00:30:28;;;;;;;11.90;9.80;;;;;22.20;100210.00;;;;2078771;28;20220;-50
2022/05/12 00:31:28;;;;;;;11.50;8.90;;;;;22.20;100211.00;;;;2078719;28;20206;-50
2022/05/12 00:32:29;;;;;;;10.13;9.13;;;;;22.20;100204.00;;;;2078058;28;20216;-50
2022/05/12 00:33:29;;;;;;;11.93;9.80;;;;;22.20;100200.00;;;;2070441;28;20727;-50
2022/05/12 00:34:29;;;;;;;12.07;9.60;;;;;22.20;100202.00;;;;2070642;28;20272;-50
2022/05/12 00:35:30;;;;;;;9.57;8.57;;;;;22.20;100203.00;;;;2069954;28;20277;-50
2022/05/12 00:36:30;;;;;;;11.20;10.00;;;;;22.20;100202.00;;;;2078410;28;20210;-50
2022/05/12 00:37:31;;;;;;;11.47;9.60;;;;;22.20;100200.00;;;;2078696;28;20671;-50
2022/05/12 00:38:31;;;;;;;9.73;8.40;;;;;22.20;100201.00;;;;2078094;28;20213;-50
2022/05/12 00:39:31;;;;;;;11.33;8.97;;;;;22.20;100198.00;;;;2076846;28;20854;-54
2022/05/12 00:40:32;;;;;;;9.50;8.50;;;;;22.20;100212.00;;;;2078634;28;20213;-55
2022/05/12 00:41:32;;;;;;;10.50;9.40;;;;;22.20;100211.00;;;;2078735;28;20208;-51
2022/05/12 00:42:33;;;;;;;10.60;8.63;;;;;22.20;100207.00;;;;2078696;28;20206;-51
2022/05/12 00:43:39;;;;;;;10.23;9.13;;;;;22.20;100210.00;;;;2078550;28;20206;-51
2022/05/12 00:44:39;;;;;;;9.52;8.57;;;;;22.20;100210.00;;;;2077924;28;20690;-50
2022/05/12 00:45:41;;;;;;;10.63;8.70;;;;;22.20;100220.00;;;;2077936;28;20224;-50
2022/05/12 00:46:41;;;;;;;9.60;8.60;;;;;22.20;100225.00;;;;2078652;28;20324;-50
2022/05/12 00:47:42;;;;;;;12.50;9.70;;;;;22.20;100221.00;;;;2078563;28;20209;-50
2022/05/12 00:48:43;;;;;;;9.80;8.73;;;;;22.20;100221.00;;;;2070700;28;20986;-50
2022/05/12 00:49:43;;;;;;;12.00;8.68;;;;;22.20;100227.00;;;;2070182;28;20213;-50
2022/05/12 00:50:44;;;;;;;10.53;8.57;;;;;22.20;100221.00;;;;2070297;28;20247;-50
2022/05/12 00:51:47;;;;;;;10.77;8.53;;;;;22.20;100225.00;;;;2061737;28;20779;-50
2022/05/12 00:52:47;;;;;;;8.35;7.53;;;;;22.20;100223.00;;;;2066859;28;20257;-50
2022/05/12 00:53:48;;;;;;;10.37;8.20;;;;;22.20;100220.00;;;;2077844;28;20785;-50
2022/05/12 00:54:52;;;;;;;9.40;7.37;;;;;22.20;100234.00;;;;2077693;28;20213;-50
2022/05/12 00:55:53;;;;;;;10.75;7.78;;;;;22.20;100228.00;;;;2059735;28;20552;-50
2022/05/12 00:56:53;;;;;;;7.70;6.90;;;;;22.20;100231.00;;;;2077656;28;20297;-50
2022/05/12 00:57:55;;;;;;;9.47;8.00;;;;;22.20;100233.00;;;;2080084;28;20228;-50
2022/05/12 00:58:59;;;;;;;8.30;7.38;;;;;22.20;100224.00;;;;2078558;28;20222;-50
2022/05/12 00:59:59;;;;;;;8.77;7.53;;;;;22.20;100234.00;;;;2077902;28;20641;-50
2022/05/12 01:01:02;;;;;;;10.97;9.70;;;;;22.20;100237.00;;;;2060783;28;20306;-50
2022/05/12 01:02:03;;;;;;;11.00;8.60;;;;;22.20;100245.00;;;;2069551;28;20596;-50
2022/05/12 01:03:07;;;;;;;8.63;7.35;;;;;22.20;100241.00;;;;2078387;28;20236;-50
2022/05/12 01:04:07;;;;;;;10.50;7.30;;;;;22.20;100247.00;;;;2077454;28;20213;-50
2022/05/12 01:05:08;;;;;;;8.67;7.77;;;;;22.20;100249.00;;;;2077813;28;20210;-50
2022/05/12 01:06:09;;;;;;;9.80;7.50;;;;;22.20;100251.00;;;;2076970;28;20245;-50
2022/05/12 01:07:09;;;;;;;10.80;8.73;;;;;22.20;100255.00;;;;2077640;28;20233;-50
2022/05/12 01:08:11;;;;;;;8.00;6.67;;;;;22.20;100252.00;;;;2078565;28;20616;-50
2022/05/12 01:09:11;;;;;;;7.53;6.82;;;;;22.20;100258.00;;;;2069678;28;20734;-50
2022/05/12 01:10:11;;;;;;;9.27;7.37;;;;;22.20;100255.00;;;;2066018;28;20309;-50
2022/05/12 01:11:14;;;;;;;7.10;6.37;;;;;22.20;100257.00;;;;2069407;28;20210;-50
2022/05/12 01:12:15;;;;;;;7.82;6.70;;;;;22.20;100258.00;;;;2061868;28;20211;-50
2022/05/12 01:13:16;;;;;;;8.13;6.87;;;;;22.20;100266.00;;;;2069756;28;20269;-50
2022/05/12 01:14:16;;;;;;;9.07;7.10;;;;;22.20;100266.00;;;;2069282;28;20613;-51
2022/05/12 01:15:18;;;;;;;7.50;6.63;;;;;22.20;100270.00;;;;2069318;28;20540;-51
2022/05/12 01:16:40;;;;;;;6.88;6.18;;;;;22.20;100272.00;;;;2069790;28;20210;-50
2022/05/12 01:17:40;;;;;;;9.38;6.45;;;;;22.20;100276.00;;;;2075512;28;20702;-50
2022/05/12 01:18:40;;;;;;;7.63;6.40;;;;;22.20;100276.00;;;;2078229;28;20240;-50
2022/05/12 01:19:41;;;;;;;7.83;6.87;;;;;22.20;100274.00;;;;2078221;28;20216;-51
2022/05/12 01:20:42;;;;;;;8.77;6.07;;;;;22.20;100272.00;;;;2078094;28;20247;-50
2022/05/12 01:21:43;;;;;;;6.87;5.77;;;;;22.20;100279.00;;;;2080348;28;20239;-50
2022/05/12 01:23:01;;;;;;;8.03;6.40;;;;;22.20;100279.00;;;;2081088;28;20460;-51
2022/05/12 01:24:02;;;;;;;6.10;5.47;;;;;22.20;100278.00;;;;2081304;28;20237;-50
2022/05/12 01:25:09;;;;;;;7.20;6.43;;;;;22.20;100282.00;;;;2080812;28;20263;-50
2022/05/12 01:26:13;;;;;;;8.73;6.45;;;;;22.10;100288.00;;;;2082357;28;20217;-50
2022/05/12 01:27:19;;;;;;;7.63;6.78;;;;;22.10;100285.00;;;;2079386;28;20288;-50
2022/05/12 01:28:19;;;;;;;6.28;5.65;;;;;22.10;100292.00;;;;2080313;28;20201;-50
2022/05/12 01:29:19;;;;;;;8.33;6.40;;;;;22.20;100294.00;;;;2079742;28;20296;-50
2022/05/12 01:30:21;;;;;;;7.70;6.03;;;;;22.20;100295.00;;;;2071402;28;20213;-50
2022/05/12 01:31:21;;;;;;;10.48;6.43;;;;;22.10;100288.00;;;;2079815;28;20799;-50
2022/05/12 01:32:23;;;;;;;7.30;5.97;;;;;22.10;100292.00;;;;2080493;28;20201;-50
2022/05/12 01:33:24;;;;;;;8.07;5.75;;;;;22.10;100296.00;;;;2080883;28;20690;-50
2022/05/12 01:34:24;;;;;;;8.10;5.97;;;;;22.10;100295.00;;;;2080470;28;20218;-50
2022/05/12 01:35:25;;;;;;;5.90;5.30;;;;;22.10;100291.00;;;;2079869;28;20214;-50
2022/05/12 01:36:25;;;;;;;6.50;5.67;;;;;22.10;100302.00;;;;2080399;28;20275;-50
2022/05/12 01:37:25;;;;;;;6.47;5.40;;;;;22.10;100299.00;;;;2080041;28;20213;-50
2022/05/12 01:38:26;;;;;;;7.33;5.50;;;;;22.10;100300.00;;;;2081272;28;20664;-50
2022/05/12 01:39:26;;;;;;;7.17;5.30;;;;;22.10;100305.00;;;;2080973;28;20254;-50
2022/05/12 01:40:26;;;;;;;6.90;5.90;;;;;22.10;100307.00;;;;2081037;28;20213;-50
2022/05/12 01:41:27;;;;;;;6.40;5.17;;;;;22.10;100310.00;;;;2080344;28;20209;-50
2022/05/12 01:42:27;;;;;;;5.93;5.20;;;;;22.10;100303.00;;;;2080706;28;20209;-51
2022/05/12 01:43:27;;;;;;;8.27;5.73;;;;;22.10;100308.00;;;;2081278;28;20205;-50
2022/05/12 01:44:28;;;;;;;6.90;5.90;;;;;22.10;100307.00;;;;2081154;28;20205;-50
2022/05/12 01:45:28;;;;;;;6.67;5.30;;;;;22.10;100310.00;;;;2080037;28;20209;-50
2022/05/12 01:46:29;;;;;;;6.43;5.10;;;;;22.10;100304.00;;;;2081209;28;20201;-50
2022/05/12 01:47:29;;;;;;;5.63;4.77;;;;;22.10;100311.00;;;;2081077;28;20206;-50
2022/05/12 01:48:30;;;;;;;6.07;4.90;;;;;22.10;100316.00;;;;2081139;28;20206;-50
2022/05/12 01:49:30;;;;;;;6.93;4.97;;;;;22.10;100323.00;;;;2081024;28;20206;-50
2022/05/12 01:50:30;;;;;;;6.17;4.87;;;;;22.10;100331.00;;;;2080921;28;20295;-50
2022/05/12 01:51:32;;;;;;;7.63;5.40;;;;;22.10;100330.00;;;;2081068;28;20347;-50
2022/05/12 01:52:33;;;;;;;6.78;5.25;;;;;22.10;100323.00;;;;2081208;28;20302;-50
2022/05/12 01:53:33;;;;;;;7.03;4.57;;;;;22.10;100334.00;;;;2081186;28;20666;-50
2022/05/12 01:54:33;;;;;;;7.10;5.70;;;;;22.10;100338.00;;;;2080309;28;20218;-50
2022/05/12 01:55:34;;;;;;;7.60;5.10;;;;;22.10;100336.00;;;;2079656;28;20221;-50
2022/05/12 01:56:34;;;;;;;5.17;4.67;;;;;22.10;100341.00;;;;2080881;28;20213;-50
2022/05/12 01:57:34;;;;;;;5.60;5.00;;;;;22.10;100337.00;;;;2080974;28;20309;-50
2022/05/12 01:58:35;;;;;;;5.40;4.67;;;;;22.10;100335.00;;;;2080911;28;20252;-50
2022/05/12 01:59:35;;;;;;;5.90;5.30;;;;;22.10;100338.00;;;;2080886;28;20226;-50
2022/05/12 02:00:36;;;;;;;5.50;5.00;;;;;22.10;100342.00;;;;2080879;28;20221;-50
2022/05/12 02:01:36;;;;;;;5.70;5.00;;;;;22.10;100349.00;;;;2080761;28;20217;-50
2022/05/12 02:02:37;;;;;;;6.13;5.30;;;;;22.10;100352.00;;;;2081075;28;20217;-50
2022/05/12 02:03:37;;;;;;;5.77;4.50;;;;;22.10;100361.00;;;;2081129;28;20221;-50
2022/05/12 02:04:37;;;;;;;7.47;5.47;;;;;22.10;100356.00;;;;2081193;28;20212;-50
2022/05/12 02:05:38;;;;;;;5.30;4.60;;;;;22.10;100364.00;;;;2080345;28;20283;-50
2022/05/12 02:06:38;;;;;;;6.90;5.03;;;;;22.10;100364.00;;;;2081117;28;20210;-50
2022/05/12 02:07:42;;;;;;;5.30;4.40;;;;;22.10;100365.00;;;;2080736;28;20213;-50
2022/05/12 02:08:43;;;;;;;4.90;4.28;;;;;22.10;100364.00;;;;2080866;28;20585;-50
2022/05/12 02:09:44;;;;;;;5.63;5.03;;;;;22.10;100366.00;;;;2081162;28;20217;-50
2022/05/12 02:10:47;;;;;;;4.93;4.40;;;;;22.10;100366.00;;;;2080256;28;20358;-50
2022/05/12 02:11:48;;;;;;;5.60;5.10;;;;;22.10;100375.00;;;;2080097;28;21004;-50
2022/05/12 02:12:48;;;;;;;4.93;4.43;;;;;22.10;100364.00;;;;2080974;28;20210;-50
2022/05/12 02:13:48;;;;;;;5.33;4.47;;;;;22.10;100370.00;;;;2081123;28;20221;-50
2022/05/12 02:14:49;;;;;;;5.77;4.97;;;;;22.10;100372.00;;;;2081001;28;20236;-50
2022/05/12 02:15:49;;;;;;;4.70;4.20;;;;;22.10;100371.00;;;;2080299;28;20275;-50
2022/05/12 02:16:49;;;;;;;4.77;4.27;;;;;22.10;100368.00;;;;2080904;28;20213;-50
2022/05/12 02:17:50;;;;;;;5.30;4.73;;;;;22.10;100372.00;;;;2080085;28;20283;-50
2022/05/12 02:18:51;;;;;;;4.57;4.17;;;;;22.10;100375.00;;;;2080948;28;20303;-51
2022/05/12 02:19:51;;;;;;;6.28;4.40;;;;;22.10;100372.00;;;;2080862;28;20648;-50
2022/05/12 02:20:52;;;;;;;4.93;4.43;;;;;22.10;100375.00;;;;2080938;28;20221;-50
2022/05/12 02:21:54;;;;;;;6.07;4.73;;;;;22.10;100380.00;;;;2080938;28;20351;-50
2022/05/12 02:22:55;;;;;;;5.57;4.05;;;;;22.10;100377.00;;;;2080836;28;20308;-50
2022/05/12 02:23:55;;;;;;;4.70;4.20;;;;;22.10;100383.00;;;;2080701;28;20214;-50
2022/05/12 02:24:55;;;;;;;4.47;3.90;;;;;22.10;100386.00;;;;2080826;28;20247;-50
2022/05/12 02:25:56;;;;;;;5.20;3.60;;;;;22.10;100393.00;;;;2080024;28;20271;-50
2022/05/12 02:26:56;;;;;;;6.13;3.83;;;;;22.10;100396.00;;;;2080825;28;20256;-50
2022/05/12 02:27:57;;;;;;;4.97;3.87;;;;;22.10;100395.00;;;;2080992;28;20216;-50
2022/05/12 02:28:57;;;;;;;6.20;4.70;;;;;22.10;100397.00;;;;2080861;28;20456;-50
2022/05/12 02:29:57;;;;;;;6.00;4.53;;;;;22.10;100401.00;;;;2080292;28;20252;-50
2022/05/12 02:30:58;;;;;;;4.20;3.73;;;;;22.10;100404.00;;;;2080365;28;20216;-50
2022/05/12 02:31:58;;;;;;;5.23;4.47;;;;;22.10;100398.00;;;;2080785;28;20205;-50
2022/05/12 02:32:58;;;;;;;4.17;3.50;;;;;22.10;100394.00;;;;2080181;28;20264;-50
2022/05/12 02:34:00;;;;;;;5.80;4.20;;;;;22.10;100398.00;;;;2079653;28;20206;-50
2022/05/12 02:35:00;;;;;;;5.72;4.40;;;;;22.10;100389.00;;;;2079580;28;20245;-50
2022/05/12 02:36:02;;;;;;;4.97;3.90;;;;;22.10;100406.00;;;;2078958;28;20216;-50
2022/05/12 02:37:03;;;;;;;4.63;3.80;;;;;22.00;100403.00;;;;2077375;28;20263;-50
2022/05/12 02:38:04;;;;;;;5.35;4.45;;;;;22.10;100400.00;;;;2078776;28;20271;-50
2022/05/12 02:39:05;;;;;;;4.13;3.73;;;;;22.10;100411.00;;;;2079661;28;20256;-50
2022/05/12 02:40:06;;;;;;;5.70;4.37;;;;;22.10;100414.00;;;;2079473;28;20517;-50
2022/05/12 02:41:06;;;;;;;4.40;3.80;;;;;22.00;100412.00;;;;2078907;28;20352;-50
2022/05/12 02:42:07;;;;;;;5.53;4.00;;;;;22.10;100418.00;;;;2078558;28;20222;-50
2022/05/12 02:43:23;;;;;;;5.85;3.83;;;;;22.10;100418.00;;;;2071661;28;20211;-50
2022/05/12 02:44:23;;;;;;;4.60;3.92;;;;;22.00;100418.00;;;;2075665;28;20205;-51
2022/05/12 02:45:24;;;;;;;4.20;3.30;;;;;22.10;100418.00;;;;2078629;28;20229;-50
2022/05/12 02:46:25;;;;;;;4.65;3.88;;;;;22.10;100420.00;;;;2078875;28;20217;-50
2022/05/12 02:47:25;;;;;;;4.60;3.83;;;;;22.00;100423.00;;;;2078930;28;20937;-50
2022/05/12 02:48:27;;;;;;;4.80;4.07;;;;;22.10;100425.00;;;;2079819;28;20662;-50
2022/05/12 02:49:28;;;;;;;4.50;3.75;;;;;22.00;100428.00;;;;2079475;28;20210;-50
2022/05/12 02:50:28;;;;;;;4.30;3.57;;;;;22.10;100431.00;;;;2079723;28;20563;-50
2022/05/12 02:51:28;;;;;;;5.57;4.63;;;;;22.10;100433.00;;;;2079369;28;20210;-50
2022/05/12 02:52:29;;;;;;;4.17;3.20;;;;;22.10;100427.00;;;;2075491;28;20238;-50
2022/05/12 02:53:29;;;;;;;4.43;3.30;;;;;22.10;100434.00;;;;2071483;28;20212;-50
2022/05/12 02:54:30;;;;;;;4.10;3.57;;;;;22.00;100437.00;;;;2070450;28;20221;-50
2022/05/12 02:55:30;;;;;;;4.57;3.50;;;;;22.10;100441.00;;;;2070098;28;20659;-50
2022/05/12 02:56:30;;;;;;;3.90;3.20;;;;;22.10;100442.00;;;;2071455;28;20390;-50
2022/05/12 02:57:31;;;;;;;6.43;3.70;;;;;22.10;100437.00;;;;2071483;28;20202;-50
2022/05/12 02:58:31;;;;;;;4.43;3.43;;;;;22.10;100432.00;;;;2071020;28;20305;-50
2022/05/12 02:59:31;;;;;;;3.57;3.27;;;;;22.10;100431.00;;;;2071362;28;20253;-50
2022/05/12 03:00:33;;;;;;;4.93;3.90;;;;;22.10;100431.00;;;;2071342;28;20209;-50
2022/05/12 03:01:33;;;;;;;3.55;3.25;;;;;22.10;100438.00;;;;2071025;28;20214;-50
2022/05/12 03:02:33;;;;;;;6.20;4.10;;;;;22.10;100432.00;;;;2071242;28;20313;-50
2022/05/12 03:03:34;;;;;;;5.93;4.00;;;;;22.10;100442.00;;;;2071203;28;20279;-50
2022/05/12 03:04:34;;;;;;;7.03;3.97;;;;;22.10;100431.00;;;;2071491;28;20207;-50
2022/05/12 03:05:35;;;;;;;4.83;3.43;;;;;22.10;100440.00;;;;2070620;28;20226;-50
2022/05/12 03:06:35;;;;;;;4.20;3.80;;;;;22.10;100437.00;;;;2071586;28;20309;-50
2022/05/12 03:07:36;;;;;;;3.57;3.20;;;;;22.10;100437.00;;;;2071438;28;21127;-50
2022/05/12 03:08:36;;;;;;;4.43;3.70;;;;;22.10;100441.00;;;;2071203;28;21006;-50
2022/05/12 03:09:37;;;;;;;5.17;3.37;;;;;22.10;100441.00;;;;2062164;28;20226;-50
2022/05/12 03:10:38;;;;;;;4.33;3.50;;;;;22.10;100436.00;;;;2070829;28;20528;-49
2022/05/12 03:11:39;;;;;;;5.70;3.63;;;;;22.10;100443.00;;;;2071614;28;20986;-50
2022/05/12 03:12:39;;;;;;;4.70;3.78;;;;;22.10;100432.00;;;;2071537;28;20665;-50
2022/05/12 03:13:39;;;;;;;3.97;3.50;;;;;22.10;100434.00;;;;2071108;28;20325;-50
2022/05/12 03:14:40;;;;;;;3.40;2.60;;;;;22.10;100438.00;;;;2071044;28;20298;-50
2022/05/12 03:15:40;;;;;;;7.57;3.67;;;;;22.10;100438.00;;;;2070822;28;20210;-50
2022/05/12 03:16:41;;;;;;;4.90;3.10;;;;;22.10;100445.00;;;;2071682;28;20609;-50
2022/05/12 03:17:42;;;;;;;4.73;3.43;;;;;22.10;100446.00;;;;2071324;28;20210;-50
2022/05/12 03:18:46;;;;;;;3.95;3.05;;;;;22.10;100444.00;;;;2071195;28;20219;-49
2022/05/12 03:19:47;;;;;;;3.88;3.30;;;;;22.10;100445.00;;;;2071380;28;20757;-50
2022/05/12 03:20:47;;;;;;;4.47;3.60;;;;;22.10;100446.00;;;;2071318;28;20301;-50
2022/05/12 03:21:48;;;;;;;4.70;3.10;;;;;22.10;100454.00;;;;2071311;28;20293;-50
2022/05/12 03:22:48;;;;;;;4.70;3.63;;;;;22.10;100452.00;;;;2070634;28;20213;-50
2022/05/12 03:23:49;;;;;;;3.83;3.33;;;;;22.10;100450.00;;;;2068583;28;20305;-50
2022/05/12 03:24:50;;;;;;;4.40;3.47;;;;;22.10;100461.00;;;;2070188;28;20234;-50
2022/05/12 03:25:51;;;;;;;4.40;3.10;;;;;22.10;100461.00;;;;2069760;28;20241;-50
2022/05/12 03:26:51;;;;;;;3.85;2.88;;;;;22.10;100451.00;;;;2070109;28;20210;-50
2022/05/12 03:27:52;;;;;;;3.60;2.83;;;;;22.00;100457.00;;;;2071391;28;20241;-50
2022/05/12 03:28:52;;;;;;;5.10;3.30;;;;;22.00;100467.00;;;;2071231;28;20210;-50
2022/05/12 03:29:52;;;;;;;3.70;2.90;;;;;22.00;100469.00;;;;2070882;28;20269;-50
2022/05/12 03:30:53;;;;;;;4.30;2.67;;;;;22.00;100465.00;;;;2070070;28;20933;-50
2022/05/12 03:31:53;;;;;;;3.20;2.80;;;;;22.00;100466.00;;;;2071203;28;20214;-50
2022/05/12 03:32:53;;;;;;;4.20;3.07;;;;;22.00;100470.00;;;;2071072;28;20233;-50
2022/05/12 03:33:54;;;;;;;3.40;2.97;;;;;22.00;100469.00;;;;2071196;28;20240;-50
2022/05/12 03:34:55;;;;;;;4.20;3.27;;;;;22.00;100471.00;;;;2071215;28;20641;-50
2022/05/12 03:35:56;;;;;;;4.47;3.10;;;;;22.00;100480.00;;;;2070125;28;20464;-50
2022/05/12 03:36:56;;;;;;;3.50;2.90;;;;;22.00;100468.00;;;;2071204;28;20224;-50
2022/05/12 03:37:57;;;;;;;4.50;3.27;;;;;22.00;100479.00;;;;2069379;28;20550;-50
2022/05/12 03:38:57;;;;;;;3.30;2.90;;;;;22.00;100477.00;;;;2070320;28;20593;-50
2022/05/12 03:39:57;;;;;;;4.63;2.90;;;;;22.00;100477.00;;;;2069583;28;20692;-50
2022/05/12 03:40:58;;;;;;;3.87;3.07;;;;;22.00;100479.00;;;;2070501;28;20210;-50
2022/05/12 03:41:58;;;;;;;3.80;2.73;;;;;22.00;100481.00;;;;2070277;28;20263;-50
2022/05/12 03:42:59;;;;;;;3.80;3.20;;;;;22.00;100482.00;;;;2070848;28;20276;-50
2022/05/12 03:45:19;;;;;;;4.95;2.75;;;;;22.00;100482.00;;;;2074466;28;20572;-50
2022/05/12 03:46:19;;;;;;;4.13;3.17;;;;;22.00;100485.00;;;;2078306;28;20271;-50
2022/05/12 03:47:24;;;;;;;4.00;2.90;;;;;22.00;100485.00;;;;2078319;28;20218;-50
2022/05/12 03:48:24;;;;;;;3.15;2.63;;;;;22.00;100488.00;;;;2077865;28;21114;-50
2022/05/12 03:49:24;;;;;;;3.43;3.10;;;;;22.00;100491.00;;;;2069836;28;20309;-50
2022/05/12 03:50:26;;;;;;;4.73;3.40;;;;;21.90;100489.00;;;;2077681;28;20356;-50
2022/05/12 03:51:26;;;;;;;3.25;2.55;;;;;21.90;100492.00;;;;2078870;28;21293;-50
2022/05/12 03:52:27;;;;;;;4.20;2.50;;;;;22.00;100495.00;;;;2078602;28;20210;-50
2022/05/12 03:53:27;;;;;;;3.87;2.60;;;;;22.00;100482.00;;;;2076676;28;20217;-50
2022/05/12 03:54:28;;;;;;;3.60;2.40;;;;;22.00;100496.00;;;;2070779;28;20210;-50
2022/05/12 03:55:29;;;;;;;4.30;3.07;;;;;22.00;100487.00;;;;2069914;28;20249;-51
2022/05/12 03:56:31;;;;;;;3.70;2.80;;;;;22.00;100487.00;;;;2070957;28;20210;-50
2022/05/12 03:57:31;;;;;;;3.83;2.80;;;;;22.00;100495.00;;;;2069854;28;20241;-51
2022/05/12 03:58:32;;;;;;;3.40;2.60;;;;;22.00;100495.00;;;;2070077;28;20229;-50
2022/05/12 03:59:33;;;;;;;3.70;2.83;;;;;22.00;100501.00;;;;2070821;28;20221;-51
2022/05/12 04:00:34;;;;;;;3.00;2.63;;;;;22.00;100495.00;;;;2071073;28;20214;-50
2022/05/12 04:01:34;;;;;;;3.60;2.47;;;;;22.00;100500.00;;;;2070898;28;20264;-50
2022/05/12 04:02:35;;;;;;;3.27;2.80;;;;;22.00;100510.00;;;;2071056;28;20853;-50
2022/05/12 04:03:35;;;;;;;3.60;2.70;;;;;21.90;100506.00;;;;2070782;28;20634;-50
2022/05/12 04:04:36;;;;;;;3.60;2.80;;;;;22.00;100512.00;;;;2070777;28;20617;-50
2022/05/12 04:05:36;;;;;;;3.53;2.77;;;;;22.00;100504.00;;;;2069566;28;20222;-50
2022/05/12 04:06:36;;;;;;;3.33;2.47;;;;;22.00;100501.00;;;;2069653;28;20214;-51
2022/05/12 04:07:40;;;;;;;5.63;2.57;;;;;22.00;100508.00;;;;2077633;28;20213;-50
2022/05/12 04:08:41;;;;;;;3.58;2.28;;;;;22.00;100505.00;;;;2078881;28;20643;-50
2022/05/12 04:09:41;;;;;;;3.97;3.00;;;;;22.00;100517.00;;;;2078960;28;20206;-50
2022/05/12 04:10:41;;;;;;;3.77;2.73;;;;;22.00;100515.00;;;;2077727;28;20216;-50
2022/05/12 04:11:42;;;;;;;3.43;2.63;;;;;22.00;100522.00;;;;2079035;28;20205;-50
2022/05/12 04:12:42;;;;;;;3.77;2.03;;;;;22.00;100526.00;;;;2079160;28;20251;-50
2022/05/12 04:13:44;;;;;;;3.87;2.67;;;;;22.00;100526.00;;;;2078748;28;20213;-50
2022/05/12 04:14:44;;;;;;;3.45;2.42;;;;;22.00;100526.00;;;;2078743;28;20292;-50
2022/05/12 04:15:45;;;;;;;4.57;2.60;;;;;22.00;100530.00;;;;2077340;28;20289;-50
2022/05/12 04:16:45;;;;;;;3.57;2.90;;;;;22.00;100527.00;;;;2078459;28;20290;-50
2022/05/12 04:17:46;;;;;;;3.20;2.37;;;;;22.00;100520.00;;;;2078821;28;20574;-50
2022/05/12 04:18:46;;;;;;;3.55;2.70;;;;;22.00;100476.00;;;;2069808;28;20226;-50
2022/05/12 04:19:50;;;;;;;2.60;2.33;;;;;22.00;100529.00;;;;2061887;28;20242;-50
2022/05/12 04:20:52;;;;;;;3.55;2.63;;;;;22.00;100525.00;;;;2078446;28;20237;-50
2022/05/12 04:21:55;;;;;;;3.42;2.40;;;;;22.00;100533.00;;;;2079235;28;20589;-50
2022/05/12 04:22:55;;;;;;;2.97;2.67;;;;;22.00;100533.00;;;;2078950;28;20217;-50
2022/05/12 04:23:56;;;;;;;4.37;2.60;;;;;22.00;100535.00;;;;2077343;28;20214;-50
2022/05/12 04:24:56;;;;;;;3.60;2.20;;;;;22.00;100542.00;;;;2073315;28;20210;-50
2022/05/12 04:25:56;;;;;;;3.30;2.60;;;;;22.00;100540.00;;;;2067698;28;20269;-50
2022/05/12 04:26:57;;;;;;;3.83;2.03;;;;;22.00;100537.00;;;;2070831;28;20241;-50
2022/05/12 04:27:58;;;;;;;3.28;2.90;;;;;22.00;100540.00;;;;2075004;28;20556;-50
2022/05/12 04:28:58;;;;;;;3.27;2.20;;;;;22.00;100537.00;;;;2078819;28;20224;-50
2022/05/12 04:29:59;;;;;;;4.80;2.80;;;;;22.00;100548.00;;;;2079032;28;20232;-50
2022/05/12 04:30:59;;;;;;;3.27;2.67;;;;;22.00;100540.00;;;;2078766;28;20221;-50
2022/05/12 04:31:59;;;;;;;3.87;2.50;;;;;22.00;100544.00;;;;2078400;28;20268;-50
2022/05/12 04:35:11;;;;;;;3.30;2.00;;;;;22.00;100535.00;;;;2078780;28;20213;-50
2022/05/12 04:35:39;;;;;;;2.80;2.30;;;;;22.00;100545.00;;;;2068034;28;20209;-50
2022/05/12 04:36:39;;;;;;;2.20;2.00;;;;;22.00;100545.00;;;;2077778;28;20280;-51
2022/05/12 04:37:45;;;;;;;2.93;2.07;;;;;22.00;100555.00;;;;2078651;28;20690;-51
2022/05/12 04:38:45;;;;;;;3.08;2.20;;;;;22.00;100551.00;;;;2078747;28;20265;-50
2022/05/12 04:39:45;;;;;;;3.53;2.13;;;;;22.00;100554.00;;;;2069834;28;20222;-50
2022/05/12 04:40:46;;;;;;;2.80;2.20;;;;;22.00;100549.00;;;;2070055;28;21081;-51
2022/05/12 04:41:46;;;;;;;3.80;2.30;;;;;22.00;100553.00;;;;2069579;28;20594;-50
2022/05/12 04:42:47;;;;;;;3.13;2.63;;;;;22.00;100555.00;;;;2069276;28;20234;-50
2022/05/12 04:43:48;;;;;;;4.05;2.30;;;;;22.00;100555.00;;;;2078900;28;20209;-50
2022/05/12 04:44:48;;;;;;;3.33;2.37;;;;;22.00;100558.00;;;;2078459;28;20757;-50
2022/05/12 04:45:49;;;;;;;5.10;2.53;;;;;22.00;100564.00;;;;2078319;28;20726;-50
2022/05/12 04:46:49;;;;;;;2.50;2.30;;;;;22.00;100564.00;;;;2077689;28;20702;-50
2022/05/12 04:47:50;;;;;;;2.70;2.10;;;;;22.00;100567.00;;;;2077452;28;20840;-51
2022/05/12 04:48:50;;;;;;;2.57;2.13;;;;;22.00;100567.00;;;;2077409;28;20690;-51
2022/05/12 04:49:50;;;;;;;2.27;1.83;;;;;22.00;100572.00;;;;2077807;28;20274;-50
2022/05/12 04:50:51;;;;;;;3.90;2.10;;;;;22.00;100571.00;;;;2078641;28;20209;-51
2022/05/12 04:51:51;;;;;;;2.43;1.90;;;;;22.00;100565.00;;;;2078827;28;20690;-50
2022/05/12 04:52:52;;;;;;;2.83;1.90;;;;;22.10;100569.00;;;;2078436;28;20268;-51
2022/05/12 04:53:53;;;;;;;2.42;2.10;;;;;22.10;100559.00;;;;2078727;28;20209;-50
2022/05/12 04:54:54;;;;;;;3.90;2.20;;;;;22.00;100571.00;;;;2078754;28;20221;-51
2022/05/12 04:55:54;;;;;;;2.67;2.00;;;;;22.10;100581.00;;;;2077551;28;20272;-51
2022/05/12 04:56:54;;;;;;;2.57;1.80;;;;;22.10;100574.00;;;;2077635;28;20465;-51
2022/05/12 04:57:56;;;;;;;2.37;2.17;;;;;22.10;100580.00;;;;2078603;28;20209;-51
2022/05/12 04:58:57;;;;;;;2.55;1.80;;;;;22.10;100576.00;;;;2078115;28;20282;-51
2022/05/12 04:59:57;;;;;;;2.80;1.90;;;;;22.00;100578.00;;;;2078528;28;20268;-51
2022/05/12 05:00:57;;;;;;;3.03;2.00;;;;;22.10;100582.00;;;;2078668;28;20222;-49
2022/05/12 05:01:58;;;;;;;2.50;1.83;;;;;22.00;100589.00;;;;2078653;28;20249;-51
2022/05/12 05:02:58;;;;;;;2.63;2.20;;;;;22.00;100589.00;;;;2078232;28;20223;-50
2022/05/12 05:04:00;;;;;;;2.70;2.10;;;;;22.00;100589.00;;;;2078611;28;20213;-51